createdAt,value
2022-09-05T00:00:11.925Z,22.52
2022-09-05T00:03:00.834Z,22.49
2022-09-05T00:06:03.208Z,22.46
2022-09-05T00:09:02.264Z,22.41
2022-09-05T00:11:47.728Z,22.39
2022-09-05T00:15:14.726Z,22.34
2022-09-05T00:18:44.120Z,22.34
2022-09-05T00:24:24.986Z,22.28
2022-09-05T00:24:35.106Z,22.29
2022-09-05T00:27:43.707Z,22.27
2022-09-05T00:31:51.041Z,22.24
2022-09-05T00:33:31.947Z,22.20
2022-09-05T00:36:48.898Z,22.16
2022-09-05T00:39:37.957Z,22.17
2022-09-05T00:42:21.518Z,22.16
2022-09-05T00:44:59.120Z,22.14
2022-09-05T00:47:48.224Z,22.13
2022-09-05T00:51:03.292Z,22.08
2022-09-05T00:53:42.315Z,22.03
2022-09-05T00:57:00.892Z,21.95
2022-09-05T01:00:19.214Z,21.89
2022-09-05T01:03:32.283Z,21.83
2022-09-05T01:06:35.182Z,21.79
2022-09-05T01:09:12.637Z,21.73
2022-09-05T01:12:25.324Z,21.70
2022-09-05T01:15:05.137Z,21.69
2022-09-05T01:18:14.573Z,21.65
2022-09-05T01:20:54.144Z,21.69
2022-09-05T01:23:59.859Z,21.72
2022-09-05T01:27:00.510Z,21.82
2022-09-05T01:29:40.090Z,21.88
2022-09-05T01:32:33.025Z,21.93
2022-09-05T01:35:28.569Z,21.94
2022-09-05T01:38:21.229Z,21.94
2022-09-05T01:41:18.011Z,21.97
2022-09-05T01:44:29.446Z,21.98
2022-09-05T01:47:31.045Z,21.99
2022-09-05T01:50:32.666Z,21.98
2022-09-05T01:53:05.825Z,21.93
2022-09-05T01:56:05.829Z,21.90
2022-09-05T01:58:55.886Z,21.92
2022-09-05T02:01:57.711Z,21.90
2022-09-05T02:04:28.338Z,21.89
2022-09-05T02:07:57.336Z,21.86
2022-09-05T02:11:08.359Z,21.88
2022-09-05T02:13:36.017Z,21.83
2022-09-05T02:16:38.753Z,21.76
2022-09-05T02:19:09.451Z,21.78
2022-09-05T02:22:14.001Z,21.76
2022-09-05T02:25:30.584Z,21.73
2022-09-05T02:28:10.310Z,21.73
2022-09-05T02:30:57.614Z,21.70
2022-09-05T02:34:08.529Z,21.70
2022-09-05T02:36:44.237Z,21.67
2022-09-05T02:45:09.268Z,21.65
2022-09-05T02:45:17.571Z,21.66
2022-09-05T02:45:45.182Z,21.63
2022-09-05T02:48:21.633Z,21.61
2022-09-05T02:57:28.670Z,21.57
2022-09-05T02:57:37.052Z,21.61
2022-09-05T02:58:05.318Z,21.58
2022-09-05T03:00:51.077Z,21.52
2022-09-05T03:03:39.284Z,21.43
2022-09-05T03:06:40.671Z,21.37
2022-09-05T03:09:28.702Z,21.34
2022-09-05T03:12:30.058Z,21.30
2022-09-05T03:15:18.639Z,21.28
2022-09-05T03:18:20.541Z,21.25
2022-09-05T03:21:26.972Z,21.30
2022-09-05T03:24:32.002Z,21.34
2022-09-05T03:27:46.608Z,21.32
2022-09-05T03:30:26.218Z,21.48
2022-09-05T03:33:39.374Z,21.40
2022-09-05T03:36:48.228Z,21.35
2022-09-05T03:39:46.460Z,21.30
2022-09-05T03:42:57.610Z,21.21
2022-09-05T03:46:05.203Z,21.14
2022-09-05T03:48:58.045Z,21.08
2022-09-05T03:57:14.767Z,21.00
2022-09-05T03:57:27.025Z,21.01
2022-09-05T03:58:55.398Z,21.01
2022-09-05T04:02:22.400Z,21.02
2022-09-05T04:08:08.280Z,20.99
2022-09-05T04:08:23.655Z,20.97
2022-09-05T04:11:19.541Z,20.90
2022-09-05T04:14:02.841Z,20.89
2022-09-05T04:17:19.184Z,20.89
2022-09-05T04:20:28.955Z,20.84
2022-09-05T04:23:28.408Z,20.82
2022-09-05T04:26:30.382Z,20.78
2022-09-05T04:29:26.251Z,20.79
2022-09-05T04:32:38.379Z,20.79
2022-09-05T04:36:18.277Z,20.81
2022-09-05T04:38:46.637Z,20.85
2022-09-05T04:41:39.952Z,20.83
2022-09-05T04:44:17.968Z,20.87
2022-09-05T04:46:53.690Z,20.87
2022-09-05T04:49:40.216Z,20.85
2022-09-05T04:52:55.205Z,20.82
2022-09-05T04:55:30.508Z,20.85
2022-09-05T04:59:29.335Z,20.81
2022-09-05T05:06:02.070Z,20.85
2022-09-05T05:06:09.937Z,20.88
2022-09-05T05:07:27.189Z,21.00
2022-09-05T05:12:08.867Z,20.93
2022-09-05T05:17:55.803Z,20.89
2022-09-05T05:18:15.779Z,20.89
2022-09-05T05:19:33.116Z,20.88
2022-09-05T05:22:04.740Z,20.88
2022-09-05T05:24:46.864Z,20.91
2022-09-05T05:27:39.001Z,20.89
2022-09-05T05:30:11.112Z,20.90
2022-09-05T05:32:51.810Z,20.92
2022-09-05T05:35:30.438Z,20.92
2022-09-05T05:38:16.898Z,20.91
2022-09-05T05:41:16.248Z,20.94
2022-09-05T05:43:46.774Z,20.97
2022-09-05T05:46:33.536Z,20.98
2022-09-05T05:49:49.376Z,20.99
2022-09-05T05:53:01.194Z,21.04
2022-09-05T05:56:02.839Z,21.07
2022-09-05T05:58:59.186Z,21.07
2022-09-05T06:02:02.973Z,21.09
2022-09-05T06:05:00.636Z,21.13
2022-09-05T06:11:20.438Z,21.17
2022-09-05T06:14:52.425Z,21.22
2022-09-05T06:15:10.144Z,21.26
2022-09-05T06:17:51.779Z,21.30
2022-09-05T06:22:06.198Z,21.30
2022-09-05T06:24:28.596Z,21.40
2022-09-05T06:27:28.947Z,21.46
2022-09-05T06:30:14.599Z,21.52
2022-09-05T06:33:10.170Z,21.57
2022-09-05T06:36:25.632Z,21.62
2022-09-05T06:39:31.945Z,21.68
2022-09-05T06:42:43.232Z,21.73
2022-09-05T06:45:58.980Z,21.82
2022-09-05T06:49:30.072Z,21.90
2022-09-05T06:52:29.412Z,21.96
2022-09-05T06:55:38.177Z,22.00
2022-09-05T06:58:27.599Z,22.05
2022-09-05T07:00:58.551Z,22.07
2022-09-05T07:04:34.548Z,22.14
2022-09-05T07:07:06.248Z,22.23
2022-09-05T07:09:47.670Z,22.23
2022-09-05T07:12:48.539Z,22.27
2022-09-05T07:16:00.446Z,22.30
2022-09-05T07:19:03.162Z,22.35
2022-09-05T07:21:54.694Z,22.39
2022-09-05T07:24:53.754Z,22.39
2022-09-05T07:28:25.781Z,22.50
2022-09-05T07:30:33.869Z,22.56
2022-09-05T07:33:04.390Z,22.60
2022-09-05T07:35:42.254Z,22.67
2022-09-05T07:38:26.768Z,22.75
2022-09-05T07:41:25.252Z,22.83
2022-09-05T07:44:18.555Z,22.90
2022-09-05T07:46:59.009Z,23.00
2022-09-05T07:49:31.143Z,23.07
2022-09-05T07:56:52.411Z,23.24
2022-09-05T07:56:54.486Z,23.14
2022-09-05T07:58:41.382Z,23.37
2022-09-05T08:01:13.483Z,23.47
2022-09-05T08:03:44.022Z,23.54
2022-09-05T08:06:37.509Z,23.66
2022-09-05T08:10:08.378Z,23.79
2022-09-05T08:12:28.128Z,23.91
2022-09-05T08:15:22.870Z,24.03
2022-09-05T08:18:37.939Z,24.09
2022-09-05T08:21:51.912Z,24.18
2022-09-05T08:24:27.074Z,24.21
2022-09-05T08:27:20.323Z,24.25
2022-09-05T08:30:25.099Z,24.33
2022-09-05T08:33:11.295Z,24.37
2022-09-05T08:36:10.546Z,24.42
2022-09-05T08:38:42.429Z,24.48
2022-09-05T08:41:43.090Z,24.53
2022-09-05T08:46:44.007Z,24.61
2022-09-05T08:47:45.713Z,24.70
2022-09-05T08:50:26.813Z,24.75
2022-09-05T08:53:46.280Z,24.75
2022-09-05T08:56:33.979Z,24.90
2022-09-05T08:59:35.060Z,24.97
2022-09-05T09:02:47.051Z,25.03
2022-09-05T09:06:12.291Z,25.12
2022-09-05T09:08:52.406Z,25.21
2022-09-05T09:11:50.990Z,25.22
2022-09-05T09:14:52.574Z,25.33
2022-09-05T09:17:47.198Z,25.37
2022-09-05T09:20:37.883Z,25.43
2022-09-05T09:23:32.322Z,25.47
2022-09-05T09:26:17.195Z,25.55
2022-09-05T09:29:10.316Z,25.60
2022-09-05T09:32:09.666Z,25.69
2022-09-05T09:35:16.828Z,25.72
2022-09-05T09:38:28.262Z,25.80
2022-09-05T09:41:26.985Z,25.85
2022-09-05T09:44:24.238Z,25.84
2022-09-05T09:46:53.434Z,25.90
2022-09-05T09:49:54.975Z,25.96
2022-09-05T09:52:56.688Z,26.02
2022-09-05T09:56:06.648Z,26.09
2022-09-05T09:59:03.748Z,26.18
2022-09-05T10:01:53.351Z,26.25
2022-09-05T10:10:38.734Z,26.33
2022-09-05T10:10:55.576Z,26.42
2022-09-05T10:15:06.538Z,26.55
2022-09-05T10:18:25.727Z,26.59
2022-09-05T10:21:17.372Z,26.62
2022-09-05T10:24:22.829Z,26.66
2022-09-05T10:27:25.174Z,26.69
2022-09-05T10:32:10.345Z,26.72
2022-09-05T10:35:14.037Z,26.73
2022-09-05T10:36:30.058Z,26.86
2022-09-05T10:39:21.072Z,26.85
2022-09-05T10:42:03.552Z,26.99
2022-09-05T10:45:02.381Z,27.09
2022-09-05T10:47:48.420Z,27.15
2022-09-05T10:50:37.025Z,27.22
2022-09-05T10:53:28.250Z,27.26
2022-09-05T10:56:12.682Z,27.40
2022-09-05T11:01:48.570Z,27.40
2022-09-05T11:02:27.747Z,27.53
2022-09-05T11:05:23.621Z,27.52
2022-09-05T11:08:18.372Z,27.50
2022-09-05T11:11:01.362Z,27.51
2022-09-05T11:14:00.849Z,27.54
2022-09-05T11:16:53.100Z,27.57
2022-09-05T11:19:49.084Z,27.54
2022-09-05T11:22:22.819Z,27.49
2022-09-05T11:24:59.756Z,27.55
2022-09-05T11:27:49.259Z,27.52
2022-09-05T11:30:30.298Z,27.53
2022-09-05T11:39:47.611Z,27.54
2022-09-05T11:40:10.268Z,27.64
2022-09-05T11:42:58.344Z,27.68
2022-09-05T11:45:58.529Z,27.71
2022-09-05T11:48:54.012Z,27.72
2022-09-05T11:52:14.278Z,27.70
2022-09-05T11:55:00.502Z,27.77
2022-09-05T11:58:43.463Z,27.82
2022-09-05T12:01:41.823Z,27.99
2022-09-05T12:04:46.686Z,28.06
2022-09-05T12:08:08.566Z,28.18
2022-09-05T12:11:05.517Z,28.26
2022-09-05T12:14:25.416Z,28.35
2022-09-05T12:17:35.474Z,28.60
2022-09-05T12:20:31.812Z,28.80
2022-09-05T12:23:53.810Z,29.03
2022-09-05T12:27:40.545Z,29.15
2022-09-05T12:29:29.236Z,29.33
2022-09-05T12:33:58.098Z,29.47
2022-09-05T12:36:09.835Z,29.64
2022-09-05T12:40:55.126Z,29.79
2022-09-05T12:41:36.165Z,29.99
2022-09-05T12:44:52.538Z,30.12
2022-09-05T12:47:24.088Z,30.21
2022-09-05T12:50:15.253Z,30.34
2022-09-05T12:52:46.709Z,30.47
2022-09-05T12:55:26.214Z,30.46
2022-09-05T13:01:46.269Z,30.36
2022-09-05T13:03:02.511Z,30.27
2022-09-05T13:04:20.898Z,30.10
2022-09-05T13:07:18.361Z,29.91
2022-09-05T13:12:48.134Z,29.92
2022-09-05T13:14:54.908Z,30.12
2022-09-05T13:15:51.055Z,30.35
2022-09-05T13:18:31.867Z,30.48
2022-09-05T13:21:08.558Z,30.68
2022-09-05T13:24:27.536Z,30.87
2022-09-05T13:27:28.521Z,31.07
2022-09-05T13:32:39.044Z,31.25
2022-09-05T13:38:04.874Z,31.54
2022-09-05T13:38:06.454Z,31.50
2022-09-05T13:39:12.495Z,31.75
2022-09-05T13:41:59.542Z,31.93
2022-09-05T13:44:30.079Z,31.97
2022-09-05T13:47:30.352Z,32.06
2022-09-05T13:50:33.799Z,32.33
2022-09-05T13:53:37.918Z,32.48
2022-09-05T13:56:27.574Z,32.62
2022-09-05T13:59:16.259Z,32.44
2022-09-05T14:05:35.521Z,32.81
2022-09-05T14:08:33.734Z,32.93
2022-09-05T14:11:19.049Z,33.06
2022-09-05T14:14:11.315Z,33.22
2022-09-05T14:20:27.964Z,33.37
2022-09-05T14:23:15.897Z,33.21
2022-09-05T14:25:55.571Z,33.38
2022-09-05T14:28:38.602Z,33.18
2022-09-05T14:37:44.832Z,33.23
2022-09-05T14:37:46.745Z,33.66
2022-09-05T14:38:09.399Z,34.01
2022-09-05T14:40:59.696Z,34.24
2022-09-05T14:44:05.371Z,34.40
2022-09-05T14:46:39.181Z,34.44
2022-09-05T14:50:30.136Z,34.42
2022-09-05T14:56:59.742Z,34.72
2022-09-05T15:02:49.655Z,34.84
2022-09-05T15:03:00.197Z,34.94
2022-09-05T15:05:29.327Z,34.98
2022-09-05T15:10:06.461Z,34.89
2022-09-05T15:12:24.351Z,34.79
2022-09-05T15:14:05.003Z,34.81
2022-09-05T15:16:38.713Z,34.87
2022-09-05T15:19:10.768Z,34.98
2022-09-05T15:21:41.515Z,35.04
2022-09-05T15:24:27.984Z,35.05
2022-09-05T15:27:02.769Z,35.03
2022-09-05T15:29:36.834Z,35.02
2022-09-05T15:32:27.341Z,35.06
2022-09-05T15:34:59.137Z,35.09
2022-09-05T15:37:38.741Z,35.10
2022-09-05T15:40:07.432Z,35.08
2022-09-05T15:43:02.586Z,35.07
2022-09-05T15:45:37.309Z,35.03
2022-09-05T15:48:21.509Z,34.91
2022-09-05T15:50:52.893Z,34.74
2022-09-05T15:53:36.481Z,34.59
2022-09-05T15:56:10.367Z,34.47
2022-09-05T15:58:56.927Z,34.43
2022-09-05T16:01:58.691Z,34.39
2022-09-05T16:10:26.967Z,34.31
2022-09-05T16:10:41.443Z,34.24
2022-09-05T16:10:58.031Z,34.04
2022-09-05T16:13:19.399Z,33.74
2022-09-05T16:23:18.047Z,33.46
2022-09-05T16:23:26.778Z,32.85
2022-09-05T16:23:27.396Z,33.18
2022-09-05T16:24:58.995Z,32.63
2022-09-05T16:27:57.654Z,32.42
2022-09-05T16:30:31.122Z,32.25
2022-09-05T16:33:16.503Z,32.06
2022-09-05T16:36:02.461Z,31.90
2022-09-05T16:39:15.171Z,31.77
2022-09-05T16:41:57.959Z,31.68
2022-09-05T16:44:43.231Z,31.57
2022-09-05T16:48:08.085Z,31.42
2022-09-05T16:51:13.443Z,31.32
2022-09-05T16:53:58.337Z,31.24
2022-09-05T16:56:37.008Z,31.16
2022-09-05T16:59:17.750Z,31.13
2022-09-05T17:02:07.257Z,31.09
2022-09-05T17:05:03.508Z,31.07
2022-09-05T17:07:45.368Z,31.05
2022-09-05T17:10:21.111Z,30.99
2022-09-05T17:12:54.071Z,30.94
2022-09-05T17:15:38.233Z,30.86
2022-09-05T17:18:25.984Z,30.76
2022-09-05T17:21:00.408Z,30.68
2022-09-05T17:26:13.225Z,30.61
2022-09-05T17:29:32.371Z,30.54
2022-09-05T17:32:50.703Z,30.39
2022-09-05T17:35:43.728Z,30.31
2022-09-05T17:39:01.591Z,30.21
2022-09-05T17:41:51.638Z,30.12
2022-09-05T17:44:38.861Z,29.97
2022-09-05T17:47:36.383Z,29.85
2022-09-05T17:50:20.329Z,29.75
2022-09-05T17:53:25.156Z,29.65
2022-09-05T17:55:50.543Z,29.54
2022-09-05T17:58:49.018Z,29.43
2022-09-05T18:01:26.386Z,29.32
2022-09-05T18:04:08.588Z,29.19
2022-09-05T18:06:58.973Z,29.11
2022-09-05T18:09:37.535Z,29.00
2022-09-05T18:13:11.951Z,28.89
2022-09-05T18:15:17.002Z,28.76
2022-09-05T18:18:49.408Z,28.61
2022-09-05T18:21:22.305Z,28.52
2022-09-05T18:24:01.339Z,28.60
2022-09-05T18:26:39.627Z,28.50
2022-09-05T18:29:57.895Z,28.28
2022-09-05T18:32:54.280Z,28.14
2022-09-05T18:36:04.371Z,28.04
2022-09-05T18:38:51.512Z,27.95
2022-09-05T18:41:28.276Z,27.86
2022-09-05T18:44:13.616Z,27.80
2022-09-05T18:46:52.520Z,27.72
2022-09-05T18:50:22.390Z,27.67
2022-09-05T18:52:34.251Z,27.62
2022-09-05T18:56:08.924Z,27.55
2022-09-05T18:58:25.748Z,27.49
2022-09-05T19:00:56.001Z,27.43
2022-09-05T19:03:32.196Z,27.39
2022-09-05T19:06:36.250Z,27.34
2022-09-05T19:09:10.790Z,27.32
2022-09-05T19:11:53.988Z,27.24
2022-09-05T19:14:49.170Z,27.19
2022-09-05T19:17:24.120Z,27.08
2022-09-05T19:20:32.947Z,27.03
2022-09-05T19:23:13.172Z,26.99
2022-09-05T19:25:46.115Z,26.95
2022-09-05T19:33:30.012Z,26.92
2022-09-05T19:36:50.763Z,26.81
2022-09-05T19:36:58.281Z,26.75
2022-09-05T19:37:25.500Z,26.72
2022-09-05T19:46:24.814Z,26.68
2022-09-05T19:47:29.718Z,26.64
2022-09-05T19:47:47.689Z,26.62
2022-09-05T19:48:35.070Z,26.57
2022-09-05T19:51:17.143Z,26.49
2022-09-05T19:54:04.081Z,26.48
2022-09-05T19:56:40.206Z,26.46
2022-09-05T19:59:22.637Z,26.43
2022-09-05T20:01:53.108Z,26.34
2022-09-05T20:04:21.731Z,26.28
2022-09-05T20:06:50.328Z,26.20
2022-09-05T20:09:24.393Z,26.20
2022-09-05T20:11:58.550Z,26.20
2022-09-05T20:14:31.285Z,26.14
2022-09-05T20:17:17.303Z,26.10
2022-09-05T20:19:46.012Z,26.08
2022-09-05T20:22:37.121Z,26.04
2022-09-05T20:25:35.791Z,26.05
2022-09-05T20:28:35.671Z,25.95
2022-09-05T20:31:12.242Z,25.96
2022-09-05T20:33:51.634Z,25.98
2022-09-05T20:42:14.066Z,25.97
2022-09-05T20:43:16.579Z,25.98
2022-09-05T20:43:17.746Z,25.95
2022-09-05T20:45:54.472Z,25.91
2022-09-05T20:54:09.365Z,25.87
2022-09-05T20:54:15.238Z,25.83
2022-09-05T20:54:39.368Z,25.79
2022-09-05T20:57:18.882Z,25.79
2022-09-05T20:59:47.379Z,25.75
2022-09-05T21:02:29.518Z,25.73
2022-09-05T21:05:20.969Z,25.71
2022-09-05T21:08:06.788Z,25.72
2022-09-05T21:10:55.033Z,25.78
2022-09-05T21:13:32.310Z,25.83
2022-09-05T21:16:01.213Z,25.86
2022-09-05T21:18:33.229Z,25.88
2022-09-05T21:21:28.103Z,25.88
2022-09-05T21:24:17.344Z,25.87
2022-09-05T21:26:48.753Z,25.83
2022-09-05T21:29:33.229Z,25.75
2022-09-05T21:32:10.434Z,25.68
2022-09-05T21:34:53.750Z,25.62
2022-09-05T21:37:21.631Z,25.58
2022-09-05T21:39:59.753Z,25.49
2022-09-05T21:47:03.534Z,25.46
2022-09-05T21:47:40.211Z,25.43
2022-09-05T21:48:15.075Z,25.38
2022-09-05T21:50:46.512Z,25.31
2022-09-05T21:58:37.594Z,25.31
2022-09-05T21:59:20.807Z,25.27
2022-09-05T21:59:46.884Z,25.20
2022-09-05T22:02:16.854Z,25.13
2022-09-05T22:04:46.089Z,25.10
2022-09-05T22:07:25.365Z,25.13
2022-09-05T22:10:04.432Z,25.18
2022-09-05T22:12:38.749Z,25.19
2022-09-05T22:15:26.545Z,25.23
2022-09-05T22:18:16.083Z,25.26
2022-09-05T22:21:03.982Z,25.28
2022-09-05T22:23:38.724Z,25.25
2022-09-05T22:26:06.767Z,25.22
2022-09-05T22:28:38.750Z,25.15
2022-09-05T22:31:07.917Z,25.13
2022-09-05T22:33:36.395Z,25.12
2022-09-05T22:36:04.856Z,25.10
2022-09-05T22:38:33.433Z,25.06
2022-09-05T22:41:01.187Z,25.04
2022-09-05T22:43:33.900Z,25.02
2022-09-05T22:46:01.745Z,24.96
2022-09-05T22:48:29.901Z,24.95
2022-09-05T22:50:58.002Z,24.95
2022-09-05T22:53:26.072Z,24.93
2022-09-05T22:56:05.631Z,24.97
2022-09-05T22:58:51.517Z,25.00
2022-09-05T23:01:19.292Z,24.99
2022-09-05T23:03:47.236Z,25.01
2022-09-05T23:06:15.063Z,25.01
2022-09-05T23:08:42.868Z,25.01
2022-09-05T23:11:14.019Z,24.99
2022-09-05T23:13:43.037Z,24.97
2022-09-05T23:16:11.510Z,24.96
2022-09-05T23:18:40.231Z,24.93
2022-09-05T23:21:11.765Z,24.90
2022-09-05T23:23:41.418Z,24.87
2022-09-05T23:26:12.512Z,24.83
2022-09-05T23:28:43.411Z,24.83
2022-09-05T23:31:12.793Z,24.81
2022-09-05T23:33:42.061Z,24.81
2022-09-05T23:36:15.860Z,24.79
2022-09-05T23:38:44.154Z,24.78
2022-09-05T23:41:14.777Z,24.80
2022-09-05T23:43:43.078Z,24.78
2022-09-05T23:46:11.354Z,24.75
2022-09-05T23:48:39.642Z,24.70
2022-09-05T23:51:13.129Z,24.69
2022-09-05T23:53:41.445Z,24.67
2022-09-05T23:56:10.994Z,24.67
2022-09-05T23:58:39.128Z,24.64
